Map

Track Data

SID SEASON NUMBER BASIN SUBBASIN NAME ISO_TIME NATURE LAT LON WMO_WIND WMO_PRES WMO_AGENCY TRACK_TYPE DIST2LAND LANDFALL IFLAG USA_AGENCY USA_ATCF_ID USA_LAT USA_LON USA_RECORD USA_STATUS USA_WIND USA_PRES USA_SSHS USA_R34_NE USA_R34_SE USA_R34_SW USA_R34_NW USA_R50_NE USA_R50_SE USA_R50_SW USA_R50_NW USA_R64_NE USA_R64_SE USA_R64_SW USA_R64_NW USA_POCI USA_ROCI USA_RMW USA_EYE TOKYO_LAT TOKYO_LON TOKYO_GRADE TOKYO_WIND TOKYO_PRES TOKYO_R50_DIR TOKYO_R50_LONG TOKYO_R50_SHORT TOKYO_R30_DIR TOKYO_R30_LONG TOKYO_R30_SHORT TOKYO_LAND CMA_LAT CMA_LON CMA_CAT CMA_WIND CMA_PRES HKO_LAT HKO_LON HKO_CAT HKO_WIND HKO_PRES NEWDELHI_LAT NEWDELHI_LON NEWDELHI_GRADE NEWDELHI_WIND NEWDELHI_PRES NEWDELHI_CI NEWDELHI_DP NEWDELHI_POCI REUNION_LAT REUNION_LON REUNION_TYPE REUNION_WIND REUNION_PRES REUNION_TNUM REUNION_CI REUNION_RMW REUNION_R34_NE REUNION_R34_SE REUNION_R34_SW REUNION_R34_NW REUNION_R50_NE REUNION_R50_SE REUNION_R50_SW REUNION_R50_NW REUNION_R64_NE REUNION_R64_SE REUNION_R64_SW REUNION_R64_NW BOM_LAT BOM_LON BOM_TYPE BOM_WIND BOM_PRES BOM_TNUM BOM_CI BOM_RMW BOM_R34_NE BOM_R34_SE BOM_R34_SW BOM_R34_NW BOM_R50_NE BOM_R50_SE BOM_R50_SW BOM_R50_NW BOM_R64_NE BOM_R64_SE BOM_R64_SW BOM_R64_NW BOM_ROCI BOM_POCI BOM_EYE BOM_POS_METHOD BOM_PRES_METHOD NADI_LAT NADI_LON NADI_CAT NADI_WIND NADI_PRES WELLINGTON_LAT WELLINGTON_LON WELLINGTON_WIND WELLINGTON_PRES DS824_LAT DS824_LON DS824_STAGE DS824_WIND DS824_PRES TD9636_LAT TD9636_LON TD9636_STAGE TD9636_WIND TD9636_PRES TD9635_LAT TD9635_LON TD9635_WIND TD9635_PRES TD9635_ROCI NEUMANN_LAT NEUMANN_LON NEUMANN_CLASS NEUMANN_WIND NEUMANN_PRES MLC_LAT MLC_LON MLC_CLASS MLC_WIND MLC_PRES USA_GUST BOM_GUST BOM_GUST_PER REUNION_GUST REUNION_GUST_PER USA_SEAHGT USA_SEARAD_NE USA_SEARAD_SE USA_SEARAD_SW USA_SEARAD_NW STORM_SPEED STORM_DIR
1938001S15044 1938 2 SI MM NOT_NAMED 1938-01-01 06:00:00 NR -14.6000 44.3000 spur-split 178 165 __________O___ -1 -14.6000 44.3000 7 5 207
1938001S15044 1938 2 SI MM NOT_NAMED 1938-01-01 09:00:00 NR -14.8329 44.1797 spur-split 165 138 __________P___ -1 -14.8329 44.1797 7 5 206
1938001S15044 1938 2 SI MM NOT_NAMED 1938-01-01 12:00:00 NR -15.0826 44.0574 spur-split 138 119 __________P___ -1 -15.0826 44.0574 7 6 204
1938001S15044 1938 2 SI MM NOT_NAMED 1938-01-01 15:00:00 NR -15.3660 43.9314 spur-split 114 92 __________P___ -1 -15.3660 43.9314 7 7 202
1938001S15044 1938 2 SI MM NOT_NAMED 1938-01-01 18:00:00 NR -15.7000 43.8000 spur-split 92 78 __________O___ -1 -15.7000 43.8000 7 8 200
1938001S15044 1938 2 SI MM NOT_NAMED 1938-01-01 21:00:00 NR -16.0925 43.6630 spur-split 78 78 __________P___ -1 -16.0925 43.6630 7 9 198
1938001S15044 1938 2 SI MM NOT_NAMED 1938-01-02 00:00:00 NR -16.5150 43.5279 spur-split 95 81 __________P___ -1 -16.5150 43.5279 7 9 197
1938001S15044 1938 2 SI MM NOT_NAMED 1938-01-02 03:00:00 NR -16.9300 43.4037 spur-split 81 67 __________P___ -1 -16.9300 43.4037 7 8 196
1938001S15044 1938 2 SI MM NOT_NAMED 1938-01-02 06:00:00 NR -17.3000 43.3000 spur-split 67 63 __________O___ -1 -17.3000 43.3000 7 7 195
1938001S15044 1938 2 SI MM NOT_NAMED 1938-01-02 09:00:00 NR -17.5671 43.2241 spur-split 75 75 __________P___ -1 -17.5671 43.2241 7 5 195
1938001S15044 1938 2 SI MM NOT_NAMED 1938-01-02 12:00:00 NR -17.7874 43.1697 spur-split 81 81 __________P___ -1 -17.7874 43.1697 7 4 192
1938001S15044 1938 2 SI MM NOT_NAMED 1938-01-02 15:00:00 NR -17.9890 43.1304 spur-split 95 95 __________P___ -1 -17.9890 43.1304 7 4 190
1938001S15044 1938 2 SI MM NOT_NAMED 1938-01-02 18:00:00 NR -18.2000 43.1000 spur-split 95 94 __________O___ -1 -18.2000 43.1000 7 5 187
1938001S15044 1938 2 SI MM NOT_NAMED 1938-01-02 21:00:00 NR -18.4647 43.0678 spur-split 95 95 __________P___ -1 -18.4647 43.0678 7 5 186
1938001S15044 1938 2 SI MM NOT_NAMED 1938-01-03 00:00:00 NR -18.7425 43.0424 spur-split 110 110 __________P___ -1 -18.7425 43.0424 7 6 184
1938001S15044 1938 2 SI MM NOT_NAMED 1938-01-03 03:00:00 NR -19.0241 43.0209 spur-split 124 124 __________P___ -1 -19.0241 43.0209 7 6 185
1938001S15044 1938 2 SI MM NOT_NAMED 1938-01-03 06:00:00 NR -19.3000 43.0000 spur-split 127 127 __________O___ -1 -19.3000 43.0000 7 5 184
1938001S15044 1938 2 SI MM NOT_NAMED 1938-01-03 09:00:00 NR -19.5653 42.9710 spur-split 137 137 __________P___ -1 -19.5653 42.9710 7 5 185
1938001S15044 1938 2 SI MM NOT_NAMED 1938-01-03 12:00:00 NR -19.8225 42.9425 spur-split 147 130 __________P___ -1 -19.8225 42.9425 7 5 187
1938001S15044 1938 2 SI MM NOT_NAMED 1938-01-03 15:00:00 NR -20.0684 42.9178 spur-split 130 118 __________P___ -1 -20.0684 42.9178 7 5 185
1938001S15044 1938 2 SI MM NOT_NAMED 1938-01-03 18:00:00 NR -20.3000 42.9000 spur-split 118 109 __________O___ -1 -20.3000 42.9000 7 5 183
1938001S15044 1938 2 SI MM NOT_NAMED 1938-01-03 21:00:00 NR -20.5153 42.8912 spur-split 109 100 __________P___ -1 -20.5153 42.8912 7 4 0
1938001S15044 1938 2 SI MM NOT_NAMED 1938-01-04 00:00:00 NR -20.7175 42.8899 spur-split 100 83 __________P___ -1 -20.7175 42.8899 7 4 179
1938001S15044 1938 2 SI MM NOT_NAMED 1938-01-04 03:00:00 NR -20.9109 42.8937 spur-split 83 70 __________P___ -1 -20.9109 42.8937 7 4 0
1938001S15044 1938 2 SI MM NOT_NAMED 1938-01-04 06:00:00 NR -21.1000 42.9000 spur-split 70 __________O___ -1 -21.1000 42.9000 7 4 175

About IBTrACS Database

This database is a web-friendly format of International Best Track Archive for Climate Stewardship (IBTrACS), a global best track data archive curated by NOAA dating back to 1842.

Updated: 2021-12-01